Thunder radar more information blitzortung!


Radar de pluja more information rain snow radar


Visita la nostra xarxa de llocs de meteo:

Template documentation
and downloads

And another site



No particular awareness of the weather is required.    There are no Weather-warnings

Pagina Historial Weather Underground text

Diari Resum Novembre 21, 2017 Unitats:  Tant    Imperial   Mètric
« Previous Dia
SegĂźent Dia »
Diari Setmana Mensual Anual Personalitzada
  Maxima: Minima: Media:
Temperatura: 66.4 °F /  19.1 °C 40.6 °F /  4.8 °C 54.7 °F /  12.6 °C
Punt de rosada: 44.4 °F /  6.9 °C 28.6 °F /  -1.9 °C 36.7 °F /  2.6 °C
Humitat: 62 % 42 % 51 %
Wind Speed: 3.5 mph /  5.6 km/h - 1.4 mph /  2.2 km/h
RĂ fegues de vent: 3.5 mph /  5.6 km/h - -
Vent:- - SSE
Pression baro: 30.2 in /  1023.9 hPa 30.1 in /  1018.8 hPa -
Precipitacions: 0 in /  0.0 mm    
Historical Graphs
 
 
Dades de taula per Novembre 21, 2017
Temps Temperatura Punt de rosada Pression baro Vent Wind Speed RĂ fegues de vent Humitat Rainfall Rate (Hourly)
00:00 42.8 °F /  6.0 °C 29.8 °F /  -1.2 °C 30.2 in /  1020.9 hPa North 1 mph /  1.6 km/h 2 mph /  3.2 km/h 60 % 0 in /  0.0 mm
00:03 44.6 °F /  7.0 °C 30.7 °F /  -0.7 °C 30.2 in /  1022.9 hPa NNE 1.2 mph /  1.9 km/h   58 % 0 in /  0.0 mm
00:20 42.3 °F /  5.7 °C 29.5 °F /  -1.4 °C 30.2 in /  1021.9 hPa NNE 1 mph /  1.6 km/h 3 mph /  4.8 km/h 60 % 0 in /  0.0 mm
00:30 42.4 °F /  5.8 °C 29.5 °F /  -1.4 °C 30.2 in /  1021.9 hPa North 1 mph /  1.6 km/h 3 mph /  4.8 km/h 60 % 0 in /  0.0 mm
00:40 42.3 °F /  5.7 °C 29.8 °F /  -1.2 °C 30.2 in /  1020.9 hPa Calm   2 mph /  3.2 km/h 61 % 0 in /  0.0 mm
00:50 41.5 °F /  5.3 °C 29.1 °F /  -1.6 °C 30.2 in /  1020.9 hPa Calm   1 mph /  1.6 km/h 61 % 0 in /  0.0 mm
01:00 41.2 °F /  5.1 °C 28.8 °F /  -1.8 °C 30.2 in /  1021.9 hPa North 1 mph /  1.6 km/h 1 mph /  1.6 km/h 61 % 0 in /  0.0 mm
01:10 41 °F /  5.0 °C 28.6 °F /  -1.9 °C 30.2 in /  1020.9 hPa NNE 1 mph /  1.6 km/h 2 mph /  3.2 km/h 61 % 0 in /  0.0 mm
01:20 40.6 °F /  4.8 °C 28.6 °F /  -1.9 °C 30.2 in /  1020.9 hPa Calm   1 mph /  1.6 km/h 62 % 0 in /  0.0 mm
01:50 40.6 °F /  4.8 °C 28.6 °F /  -1.9 °C 30.2 in /  1021.9 hPa Calm   2 mph /  3.2 km/h 62 % 0 in /  0.0 mm
02:10 41.4 °F /  5.2 °C 29.3 °F /  -1.5 °C 30.2 in /  1020.9 hPa NW 1 mph /  1.6 km/h 2 mph /  3.2 km/h 62 % 0 in /  0.0 mm
02:20 42.3 °F /  5.7 °C 30.2 °F /  -1.0 °C 30.2 in /  1020.9 hPa Calm   2 mph /  3.2 km/h 62 % 0 in /  0.0 mm
02:30 43 °F /  6.1 °C 30.7 °F /  -0.7 °C 30.2 in /  1020.9 hPa North 1 mph /  1.6 km/h 2 mph /  3.2 km/h 62 % 0 in /  0.0 mm
02:50 45.1 °F /  7.3 °C 32.5 °F /  0.3 °C 30.2 in /  1021.9 hPa NNW 1 mph /  1.6 km/h 1 mph /  1.6 km/h 61 % 0 in /  0.0 mm
03:00 46.6 °F /  8.1 °C 33.4 °F /  0.8 °C 30.2 in /  1021.9 hPa Calm   1 mph /  1.6 km/h 60 % 0 in /  0.0 mm
03:10 47.1 °F /  8.4 °C 33.4 °F /  0.8 °C 30.2 in /  1021.9 hPa North 1 mph /  1.6 km/h 1 mph /  1.6 km/h 59 % 0 in /  0.0 mm
03:20 48.2 °F /  9.0 °C 34.5 °F /  1.4 °C 30.2 in /  1021.9 hPa North 1 mph /  1.6 km/h 1 mph /  1.6 km/h 59 % 0 in /  0.0 mm
03:30 48.6 °F /  9.2 °C 34.3 °F /  1.3 °C 30.2 in /  1021.9 hPa Calm   3 mph /  4.8 km/h 58 % 0 in /  0.0 mm
03:40 49.5 °F /  9.7 °C 34.9 °F /  1.6 °C 30.2 in /  1021.9 hPa NNE 1 mph /  1.6 km/h 2 mph /  3.2 km/h 57 % 0 in /  0.0 mm
03:50 50 °F /  10.0 °C 35.4 °F /  1.9 °C 30.2 in /  1021.9 hPa NNE 1 mph /  1.6 km/h 2 mph /  3.2 km/h 57 % 0 in /  0.0 mm
04:00 50.7 °F /  10.4 °C 35.6 °F /  2.0 °C 30.2 in /  1021.9 hPa NE 2 mph /  3.2 km/h 3 mph /  4.8 km/h 56 % 0 in /  0.0 mm
04:30 52.3 °F /  11.3 °C 36.1 °F /  2.3 °C 30.2 in /  1021.9 hPa NE 2 mph /  3.2 km/h 3 mph /  4.8 km/h 54 % 0 in /  0.0 mm
10:38 53.6 °F /  12.0 °C 37.2 °F /  2.9 °C 30.2 in /  1022.9 hPa NE 2.4 mph /  3.9 km/h 2.4 mph /  3.9 km/h 54 % 0 in /  0.0 mm
10:39 53.6 °F /  12.0 °C 37.2 °F /  2.9 °C 30.2 in /  1022.9 hPa NE 2.3 mph /  3.7 km/h 2.3 mph /  3.7 km/h 54 % 0 in /  0.0 mm
10:44 53.8 °F /  12.1 °C 37.6 °F /  3.1 °C 30.2 in /  1022.9 hPa NE 2.3 mph /  3.7 km/h 2.3 mph /  3.7 km/h 54 % 0 in /  0.0 mm
10:54 54.1 °F /  12.3 °C 37.4 °F /  3.0 °C 30.2 in /  1022.9 hPa South 2.3 mph /  3.7 km/h 2.3 mph /  3.7 km/h 53 % 0 in /  0.0 mm
11:04 55.8 °F /  13.2 °C 38.8 °F /  3.8 °C 30.2 in /  1022.9 hPa WSW 2.3 mph /  3.7 km/h 2.3 mph /  3.7 km/h 53 % 0 in /  0.0 mm
11:09 56.1 °F /  13.4 °C 39.2 °F /  4.0 °C 30.2 in /  1022.9 hPa NW 1.6 mph /  2.6 km/h 1.6 mph /  2.6 km/h 53 % 0 in /  0.0 mm
11:14 55.8 °F /  13.2 °C 38.8 °F /  3.8 °C 30.2 in /  1022.9 hPa NNE 1.2 mph /  1.9 km/h 1.2 mph /  1.9 km/h 53 % 0 in /  0.0 mm
11:24 56.7 °F /  13.7 °C 39.2 °F /  4.0 °C 30.2 in /  1022.9 hPa SSW 1.2 mph /  1.9 km/h   52 % 0 in /  0.0 mm
11:29 57 °F /  13.9 °C 39.6 °F /  4.2 °C 30.2 in /  1022.9 hPa WSW 2.3 mph /  3.7 km/h 2.3 mph /  3.7 km/h 52 % 0 in /  0.0 mm
11:34 57.2 °F /  14.0 °C 39.7 °F /  4.3 °C 30.2 in /  1023.9 hPa East 1.2 mph /  1.9 km/h 1.2 mph /  1.9 km/h 52 % 0 in /  0.0 mm
11:44 57.4 °F /  14.1 °C 39.9 °F /  4.4 °C 30.2 in /  1023.9 hPa ENE 3.5 mph /  5.6 km/h 3.5 mph /  5.6 km/h 52 % 0 in /  0.0 mm
11:49 57.6 °F /  14.2 °C 40.1 °F /  4.5 °C 30.2 in /  1023.9 hPa NE 2.3 mph /  3.7 km/h 2.3 mph /  3.7 km/h 52 % 0 in /  0.0 mm
11:54 58.1 °F /  14.5 °C 40.6 °F /  4.8 °C 30.2 in /  1023.9 hPa ENE 1.2 mph /  1.9 km/h 1.2 mph /  1.9 km/h 52 % 0 in /  0.0 mm
11:59 58.5 °F /  14.7 °C 40.8 °F /  4.9 °C 30.2 in /  1023.9 hPa NNE 2.3 mph /  3.7 km/h 2.3 mph /  3.7 km/h 52 % 0 in /  0.0 mm
12:04 58.3 °F /  14.6 °C 40.6 °F /  4.8 °C 30.2 in /  1023.9 hPa NE 2.3 mph /  3.7 km/h 2.6 mph /  4.2 km/h 52 % 0 in /  0.0 mm
12:09 58.3 °F /  14.6 °C 40.3 °F /  4.6 °C 30.2 in /  1023.9 hPa NNE 3.5 mph /  5.6 km/h 3.5 mph /  5.6 km/h 51 % 0 in /  0.0 mm
12:14 58.6 °F /  14.8 °C 40.6 °F /  4.8 °C 30.2 in /  1023.9 hPa NNW 1.2 mph /  1.9 km/h 1.2 mph /  1.9 km/h 51 % 0 in /  0.0 mm
12:19 59.4 °F /  15.2 °C 41.2 °F /  5.1 °C 30.2 in /  1022.9 hPa ENE 2.3 mph /  3.7 km/h   51 % 0 in /  0.0 mm
12:24 59.5 °F /  15.3 °C 41.4 °F /  5.2 °C 30.2 in /  1022.9 hPa NE 2.3 mph /  3.7 km/h 2.3 mph /  3.7 km/h 51 % 0 in /  0.0 mm
12:29 60.1 °F /  15.6 °C 41.9 °F /  5.5 °C 30.2 in /  1022.9 hPa NE 2.3 mph /  3.7 km/h 2.3 mph /  3.7 km/h 51 % 0 in /  0.0 mm
12:39 61 °F /  16.1 °C 42.6 °F /  5.9 °C 30.2 in /  1022.9 hPa West 1.2 mph /  1.9 km/h 1.2 mph /  1.9 km/h 51 % 0 in /  0.0 mm
12:44 61.9 °F /  16.6 °C 43.5 °F /  6.4 °C 30.2 in /  1022.9 hPa ESE 2.3 mph /  3.7 km/h 2.3 mph /  3.7 km/h 51 % 0 in /  0.0 mm
12:49 61.9 °F /  16.6 °C 43 °F /  6.1 °C 30.2 in /  1022.9 hPa East 2.3 mph /  3.7 km/h 2.3 mph /  3.7 km/h 50 % 0 in /  0.0 mm
12:54 61.7 °F /  16.5 °C 43 °F /  6.1 °C 30.2 in /  1022.9 hPa ESE 1.6 mph /  2.6 km/h 1.6 mph /  2.6 km/h 50 % 0 in /  0.0 mm
12:59 61.7 °F /  16.5 °C 43 °F /  6.1 °C 30.2 in /  1022.9 hPa ENE 3.5 mph /  5.6 km/h 3.5 mph /  5.6 km/h 50 % 0 in /  0.0 mm
13:04 62.2 °F /  16.8 °C 43.3 °F /  6.3 °C 30.2 in /  1022.9 hPa East 2.6 mph /  4.2 km/h 2.6 mph /  4.2 km/h 50 % 0 in /  0.0 mm
13:09 62.4 °F /  16.9 °C 43.5 °F /  6.4 °C 30.2 in /  1022.9 hPa ESE 1.2 mph /  1.9 km/h   50 % 0 in /  0.0 mm
13:14 62.4 °F /  16.9 °C 43.5 °F /  6.4 °C 30.2 in /  1022.9 hPa ENE 2.4 mph /  3.9 km/h 2.4 mph /  3.9 km/h 50 % 0 in /  0.0 mm
13:19 62.6 °F /  17.0 °C 43.2 °F /  6.2 °C 30.2 in /  1021.9 hPa NNW 1.2 mph /  1.9 km/h   49 % 0 in /  0.0 mm
13:24 62.8 °F /  17.1 °C 43.3 °F /  6.3 °C 30.2 in /  1021.9 hPa NE 3.5 mph /  5.6 km/h 3.5 mph /  5.6 km/h 49 % 0 in /  0.0 mm
13:27 62.8 °F /  17.1 °C 43.3 °F /  6.3 °C 30.2 in /  1021.9 hPa NW 2.3 mph /  3.7 km/h 2.3 mph /  3.7 km/h 49 % 0 in /  0.0 mm
13:30 62.8 °F /  17.1 °C 43.3 °F /  6.3 °C 30.2 in /  1021.9 hPa Calm     49 % 0 in /  0.0 mm
13:40 63.3 °F /  17.4 °C 43.9 °F /  6.6 °C 30.2 in /  1021.9 hPa ENE 2.3 mph /  3.7 km/h 2.3 mph /  3.7 km/h 49 % 0 in /  0.0 mm
13:45 63.5 °F /  17.5 °C 44.1 °F /  6.7 °C 30.2 in /  1021.9 hPa East 2.3 mph /  3.7 km/h 2.3 mph /  3.7 km/h 49 % 0 in /  0.0 mm
13:50 63.9 °F /  17.7 °C 44.2 °F /  6.8 °C 30.2 in /  1021.9 hPa NNE 2.4 mph /  3.9 km/h 2.4 mph /  3.9 km/h 49 % 0 in /  0.0 mm
14:00 64 °F /  17.8 °C 44.4 °F /  6.9 °C 30.2 in /  1021.9 hPa ENE 2.3 mph /  3.7 km/h 2.3 mph /  3.7 km/h 49 % 0 in /  0.0 mm
14:10 64.4 °F /  18.0 °C 44.2 °F /  6.8 °C 30.2 in /  1021.9 hPa NE 2.3 mph /  3.7 km/h 2.3 mph /  3.7 km/h 48 % 0 in /  0.0 mm
14:15 64.6 °F /  18.1 °C 44.4 °F /  6.9 °C 30.2 in /  1021.9 hPa ENE 2.3 mph /  3.7 km/h 2.3 mph /  3.7 km/h 48 % 0 in /  0.0 mm
14:20 64.6 °F /  18.1 °C 44.4 °F /  6.9 °C 30.2 in /  1021.9 hPa NNW 2.3 mph /  3.7 km/h 2.3 mph /  3.7 km/h 48 % 0 in /  0.0 mm
14:25 64.8 °F /  18.2 °C 44.1 °F /  6.7 °C 30.2 in /  1021.9 hPa NNW 1.2 mph /  1.9 km/h 1.2 mph /  1.9 km/h 47 % 0 in /  0.0 mm
14:30 64.8 °F /  18.2 °C 44.1 °F /  6.7 °C 30.2 in /  1021.9 hPa ENE 2.3 mph /  3.7 km/h 2.3 mph /  3.7 km/h 47 % 0 in /  0.0 mm
14:40 64.8 °F /  18.2 °C 43.5 °F /  6.4 °C 30.2 in /  1021.9 hPa NE 1.2 mph /  1.9 km/h   46 % 0 in /  0.0 mm
14:55 65.1 °F /  18.4 °C 43.2 °F /  6.2 °C 30.2 in /  1021.9 hPa ESE 2.3 mph /  3.7 km/h 2.6 mph /  4.2 km/h 45 % 0 in /  0.0 mm
15:00 65.3 °F /  18.5 °C 43.3 °F /  6.3 °C 30.2 in /  1021.9 hPa ESE 2.6 mph /  4.2 km/h 2.6 mph /  4.2 km/h 45 % 0 in /  0.0 mm
15:05 65.5 °F /  18.6 °C 43.5 °F /  6.4 °C 30.2 in /  1020.9 hPa SE 3.5 mph /  5.6 km/h 3.5 mph /  5.6 km/h 45 % 0 in /  0.0 mm
15:15 65.7 °F /  18.7 °C 43.7 °F /  6.5 °C 30.2 in /  1020.9 hPa ENE 2.3 mph /  3.7 km/h 2.3 mph /  3.7 km/h 45 % 0 in /  0.0 mm
15:30 66 °F /  18.9 °C 43.5 °F /  6.4 °C 30.2 in /  1021.9 hPa East 2.4 mph /  3.9 km/h 2.4 mph /  3.9 km/h 44 % 0 in /  0.0 mm
15:35 66 °F /  18.9 °C 43.5 °F /  6.4 °C 30.2 in /  1021.9 hPa East 2.3 mph /  3.7 km/h 2.3 mph /  3.7 km/h 44 % 0 in /  0.0 mm
15:40 66.2 °F /  19.0 °C 43 °F /  6.1 °C 30.2 in /  1021.9 hPa East 2.3 mph /  3.7 km/h 2.3 mph /  3.7 km/h 43 % 0 in /  0.0 mm
15:45 66.2 °F /  19.0 °C 43 °F /  6.1 °C 30.2 in /  1021.9 hPa East 2.3 mph /  3.7 km/h 2.3 mph /  3.7 km/h 43 % 0 in /  0.0 mm
15:50 66.4 °F /  19.1 °C 43.2 °F /  6.2 °C 30.2 in /  1021.9 hPa East 1.2 mph /  1.9 km/h 1.4 mph /  2.3 km/h 43 % 0 in /  0.0 mm
15:55 66.4 °F /  19.1 °C 43.2 °F /  6.2 °C 30.2 in /  1021.9 hPa ENE 1.2 mph /  1.9 km/h   43 % 0 in /  0.0 mm
16:05 66.2 °F /  19.0 °C 43 °F /  6.1 °C 30.2 in /  1021.9 hPa Calm     43 % 0 in /  0.0 mm
16:15 66.4 °F /  19.1 °C 42.6 °F /  5.9 °C 30.2 in /  1021.9 hPa East 2.3 mph /  3.7 km/h 2.3 mph /  3.7 km/h 42 % 0 in /  0.0 mm
16:20 66.2 °F /  19.0 °C 42.4 °F /  5.8 °C 30.2 in /  1021.9 hPa East 2.4 mph /  3.9 km/h 2.4 mph /  3.9 km/h 42 % 0 in /  0.0 mm
16:25 66.2 °F /  19.0 °C 42.4 °F /  5.8 °C 30.2 in /  1021.9 hPa East 2.3 mph /  3.7 km/h 2.3 mph /  3.7 km/h 42 % 0 in /  0.0 mm
16:30 66.2 °F /  19.0 °C 42.4 °F /  5.8 °C 30.2 in /  1021.9 hPa East 1.2 mph /  1.9 km/h 1.2 mph /  1.9 km/h 42 % 0 in /  0.0 mm
16:40 66 °F /  18.9 °C 43 °F /  6.1 °C 30.2 in /  1021.9 hPa East 1.4 mph /  2.3 km/h 1.4 mph /  2.3 km/h 43 % 0 in /  0.0 mm
16:45 65.8 °F /  18.8 °C 42.6 °F /  5.9 °C 30.2 in /  1021.9 hPa Calm     43 % 0 in /  0.0 mm
16:50 66.2 °F /  19.0 °C 43 °F /  6.1 °C 30.2 in /  1021.9 hPa Calm     43 % 0 in /  0.0 mm
16:55 66.2 °F /  19.0 °C 43.5 °F /  6.4 °C 30.2 in /  1021.9 hPa SSW 1.2 mph /  1.9 km/h 1.2 mph /  1.9 km/h 44 % 0 in /  0.0 mm
17:00 66 °F /  18.9 °C 44.1 °F /  6.7 °C 30.2 in /  1021.9 hPa SSW 1.2 mph /  1.9 km/h 1.2 mph /  1.9 km/h 45 % 0 in /  0.0 mm
17:05 65.8 °F /  18.8 °C 43.9 °F /  6.6 °C 30.2 in /  1021.9 hPa SW 2.3 mph /  3.7 km/h 2.3 mph /  3.7 km/h 45 % 0 in /  0.0 mm
17:10 65.3 °F /  18.5 °C 43.3 °F /  6.3 °C 30.2 in /  1021.9 hPa SW 1.2 mph /  1.9 km/h 1.2 mph /  1.9 km/h 45 % 0 in /  0.0 mm
17:15 64.8 °F /  18.2 °C 43 °F /  6.1 °C 30.2 in /  1021.9 hPa SW 1.2 mph /  1.9 km/h 1.2 mph /  1.9 km/h 45 % 0 in /  0.0 mm
17:20 64 °F /  17.8 °C 42.3 °F /  5.7 °C 30.2 in /  1021.9 hPa SW 1.4 mph /  2.3 km/h 1.4 mph /  2.3 km/h 45 % 0 in /  0.0 mm
17:25 63.5 °F /  17.5 °C 41.7 °F /  5.4 °C 30.2 in /  1021.9 hPa SW 1.2 mph /  1.9 km/h   45 % 0 in /  0.0 mm
17:30 62.8 °F /  17.1 °C 41.2 °F /  5.1 °C 30.2 in /  1021.9 hPa SW 2.3 mph /  3.7 km/h 2.3 mph /  3.7 km/h 45 % 0 in /  0.0 mm
17:35 62.4 °F /  16.9 °C 41.4 °F /  5.2 °C 30.2 in /  1021.9 hPa Calm     46 % 0 in /  0.0 mm
17:40 61.9 °F /  16.6 °C 40.8 °F /  4.9 °C 30.2 in /  1021.9 hPa ENE 2.3 mph /  3.7 km/h 2.3 mph /  3.7 km/h 46 % 0 in /  0.0 mm
17:45 61.5 °F /  16.4 °C 40.5 °F /  4.7 °C 30.2 in /  1021.9 hPa Calm     46 % 0 in /  0.0 mm
17:50 61.3 °F /  16.3 °C 40.5 °F /  4.7 °C 30.2 in /  1021.9 hPa NNW 1.2 mph /  1.9 km/h 1.2 mph /  1.9 km/h 46 % 0 in /  0.0 mm
17:55 61.2 °F /  16.2 °C 40.3 °F /  4.6 °C 30.2 in /  1021.9 hPa Calm     46 % 0 in /  0.0 mm
18:00 61.2 °F /  16.2 °C 40.3 °F /  4.6 °C 30.2 in /  1021.9 hPa NNW 1.2 mph /  1.9 km/h 1.2 mph /  1.9 km/h 46 % 0 in /  0.0 mm
18:05 60.8 °F /  16.0 °C 39.9 °F /  4.4 °C 30.2 in /  1021.9 hPa NNW 1.4 mph /  2.3 km/h 1.4 mph /  2.3 km/h 46 % 0 in /  0.0 mm
18:10 60.6 °F /  15.9 °C 39.7 °F /  4.3 °C 30.2 in /  1021.9 hPa NNE 1.2 mph /  1.9 km/h 1.2 mph /  1.9 km/h 46 % 0 in /  0.0 mm
18:15 59 °F /  15.0 °C 38.1 °F /  3.4 °C 30.2 in /  1021.9 hPa WSW 1.4 mph /  2.3 km/h 1.4 mph /  2.3 km/h 46 % 0 in /  0.0 mm
18:20 45.9 °F /  7.7 °C 30.6 °F /  -0.8 °C 30.1 in /  1019.9 hPa West 2 mph /  3.2 km/h 2 mph /  3.2 km/h 55 % 0 in /  0.0 mm
18:25 57.9 °F /  14.4 °C 37.2 °F /  2.9 °C 30.2 in /  1020.9 hPa SW 2.3 mph /  3.7 km/h 2.3 mph /  3.7 km/h 46 % 0 in /  0.0 mm
18:30 57.4 °F /  14.1 °C 36.9 °F /  2.7 °C 30.2 in /  1020.9 hPa West 1.4 mph /  2.3 km/h 1.4 mph /  2.3 km/h 46 % 0 in /  0.0 mm
18:35 57.6 °F /  14.2 °C 36.9 °F /  2.7 °C 30.2 in /  1021.9 hPa WSW 1.4 mph /  2.3 km/h 1.4 mph /  2.3 km/h 46 % 0 in /  0.0 mm
18:40 57.6 °F /  14.2 °C 36.9 °F /  2.7 °C 30.2 in /  1021.9 hPa West 2 mph /  3.2 km/h 2 mph /  3.2 km/h 46 % 0 in /  0.0 mm
18:45 57.4 °F /  14.1 °C 36.9 °F /  2.7 °C 30.2 in /  1021.9 hPa SW 2.4 mph /  3.9 km/h 2.4 mph /  3.9 km/h 46 % 0 in /  0.0 mm
18:50 57.2 °F /  14.0 °C 36.7 °F /  2.6 °C 30.2 in /  1021.9 hPa SW 2.2 mph /  3.5 km/h 2.2 mph /  3.5 km/h 46 % 0 in /  0.0 mm
18:55 56.7 °F /  13.7 °C 36.1 °F /  2.3 °C 30.2 in /  1021.9 hPa SW 2.3 mph /  3.7 km/h 2.3 mph /  3.7 km/h 46 % 0 in /  0.0 mm
19:00 45.7 °F /  7.6 °C 30.4 °F /  -0.9 °C 30.1 in /  1019.9 hPa Calm   2 mph /  3.2 km/h 55 % 0 in /  0.0 mm
19:10 56.1 °F /  13.4 °C 35.6 °F /  2.0 °C 30.2 in /  1020.9 hPa West 1.2 mph /  1.9 km/h 1.4 mph /  2.3 km/h 46 % 0 in /  0.0 mm
19:15 55.9 °F /  13.3 °C 35.4 °F /  1.9 °C 30.2 in /  1020.9 hPa West 1.2 mph /  1.9 km/h   46 % 0 in /  0.0 mm
19:20 45.7 °F /  7.6 °C 30.9 °F /  -0.6 °C 30.1 in /  1019.9 hPa West 1 mph /  1.6 km/h 1 mph /  1.6 km/h 56 % 0 in /  0.0 mm
19:25 55.6 °F /  13.1 °C 35.1 °F /  1.7 °C 30.2 in /  1021.9 hPa West 1.2 mph /  1.9 km/h   46 % 0 in /  0.0 mm
19:30 55.4 °F /  13.0 °C 34.9 °F /  1.6 °C 30.2 in /  1021.9 hPa West 1.6 mph /  2.6 km/h 1.6 mph /  2.6 km/h 46 % 0 in /  0.0 mm
19:35 55 °F /  12.8 °C 34.5 °F /  1.4 °C 30.2 in /  1021.9 hPa WNW 1.2 mph /  1.9 km/h 1.2 mph /  1.9 km/h 46 % 0 in /  0.0 mm
19:40 44.8 °F /  7.1 °C 30.6 °F /  -0.8 °C 30.1 in /  1019.9 hPa Calm     57 % 0 in /  0.0 mm
19:55 54 °F /  12.2 °C 33.6 °F /  0.9 °C 30.2 in /  1020.9 hPa Calm     46 % 0 in /  0.0 mm
20:00 54 °F /  12.2 °C 34.2 °F /  1.2 °C 30.2 in /  1020.9 hPa NNW 1.4 mph /  2.3 km/h 1.4 mph /  2.3 km/h 47 % 0 in /  0.0 mm
20:05 54 °F /  12.2 °C 34.2 °F /  1.2 °C 30.2 in /  1020.9 hPa Calm     47 % 0 in /  0.0 mm
20:10 53.2 °F /  11.8 °C 33.4 °F /  0.8 °C 30.2 in /  1020.9 hPa West 1.2 mph /  1.9 km/h   47 % 0 in /  0.0 mm
20:15 53.1 °F /  11.7 °C 33.3 °F /  0.7 °C 30.2 in /  1020.9 hPa Calm     47 % 0 in /  0.0 mm
20:20 44.1 °F /  6.7 °C 30.2 °F /  -1.0 °C 30.1 in /  1019.9 hPa WSW 1 mph /  1.6 km/h 2 mph /  3.2 km/h 58 % 0 in /  0.0 mm
20:26 52.5 °F /  11.4 °C 32.9 °F /  0.5 °C 30.2 in /  1020.9 hPa West 2.3 mph /  3.7 km/h 2.3 mph /  3.7 km/h 47 % 0 in /  0.0 mm
20:30 52.7 °F /  11.5 °C 33.1 °F /  0.6 °C 30.2 in /  1020.9 hPa SW 2.4 mph /  3.9 km/h 2.4 mph /  3.9 km/h 47 % 0 in /  0.0 mm
20:35 52.5 °F /  11.4 °C 33.4 °F /  0.8 °C 30.2 in /  1020.9 hPa SW 1.2 mph /  1.9 km/h 1.2 mph /  1.9 km/h 48 % 0 in /  0.0 mm
20:50 44.2 °F /  6.8 °C 30.4 °F /  -0.9 °C 30.1 in /  1019.9 hPa Calm     58 % 0 in /  0.0 mm
20:51 51.6 °F /  10.9 °C 32.5 °F /  0.3 °C 30.2 in /  1020.9 hPa WSW 2.3 mph /  3.7 km/h 2.3 mph /  3.7 km/h 48 % 0 in /  0.0 mm
21:00 51.4 °F /  10.8 °C 32.9 °F /  0.5 °C 30.2 in /  1020.9 hPa Calm     49 % 0 in /  0.0 mm
21:05 51.1 °F /  10.6 °C 32.5 °F /  0.3 °C 30.2 in /  1020.9 hPa WSW 1.4 mph /  2.3 km/h 1.4 mph /  2.3 km/h 49 % 0 in /  0.0 mm
21:06 51.1 °F /  10.6 °C 32.5 °F /  0.3 °C 30.2 in /  1020.9 hPa WSW 2.2 mph /  3.5 km/h 2.2 mph /  3.5 km/h 49 % 0 in /  0.0 mm
21:10 44.4 °F /  6.9 °C 30.9 °F /  -0.6 °C 30.1 in /  1018.8 hPa Calm     59 % 0 in /  0.0 mm
21:11 50.7 °F /  10.4 °C 32.7 °F /  0.4 °C 30.2 in /  1020.9 hPa WSW 2.3 mph /  3.7 km/h 2.3 mph /  3.7 km/h 50 % 0 in /  0.0 mm
21:20 44.2 °F /  6.8 °C 30.7 °F /  -0.7 °C 30.1 in /  1018.8 hPa Calm   1 mph /  1.6 km/h 59 % 0 in /  0.0 mm
21:30 44.4 °F /  6.9 °C 30.9 °F /  -0.6 °C 30.1 in /  1019.9 hPa Calm     59 % 0 in /  0.0 mm
21:31 50.2 °F /  10.1 °C 32.7 °F /  0.4 °C 30.1 in /  1019.9 hPa NNW 1.6 mph /  2.6 km/h 1.6 mph /  2.6 km/h 51 % 0 in /  0.0 mm
21:40 43.7 °F /  6.5 °C 30.4 °F /  -0.9 °C 30.1 in /  1018.8 hPa North 1 mph /  1.6 km/h 2 mph /  3.2 km/h 59 % 0 in /  0.0 mm
21:41 50.2 °F /  10.1 °C 32.7 °F /  0.4 °C 30.1 in /  1019.9 hPa ENE 2.3 mph /  3.7 km/h 2.3 mph /  3.7 km/h 51 % 0 in /  0.0 mm
21:46 50 °F /  10.0 °C 32.5 °F /  0.3 °C 30.1 in /  1019.9 hPa WSW 2.4 mph /  3.9 km/h 2.4 mph /  3.9 km/h 51 % 0 in /  0.0 mm
22:00 43 °F /  6.1 °C 29.7 °F /  -1.3 °C 30.1 in /  1018.8 hPa East 1 mph /  1.6 km/h 2 mph /  3.2 km/h 59 % 0 in /  0.0 mm
22:06 49.1 °F /  9.5 °C 32.2 °F /  0.1 °C 30.1 in /  1019.9 hPa ENE 1.2 mph /  1.9 km/h 1.2 mph /  1.9 km/h 52 % 0 in /  0.0 mm
22:10 42.6 °F /  5.9 °C 29.7 °F /  -1.3 °C 30.1 in /  1018.8 hPa Calm   2 mph /  3.2 km/h 60 % 0 in /  0.0 mm
22:11 48.9 °F /  9.4 °C 32 °F /  0.0 °C 30.1 in /  1019.9 hPa Calm     52 % 0 in /  0.0 mm
22:16 48.7 °F /  9.3 °C 31.8 °F /  -0.1 °C 30.1 in /  1019.9 hPa Calm     52 % 0 in /  0.0 mm
22:20 42.1 °F /  5.6 °C 29.1 °F /  -1.6 °C 30.1 in /  1018.8 hPa SW 1 mph /  1.6 km/h 2 mph /  3.2 km/h 60 % 0 in /  0.0 mm
22:21 48.6 °F /  9.2 °C 31.6 °F /  -0.2 °C 30.2 in /  1020.9 hPa ENE 1.2 mph /  1.9 km/h 1.2 mph /  1.9 km/h 52 % 0 in /  0.0 mm
22:30 42.1 °F /  5.6 °C 29.7 °F /  -1.3 °C 30.1 in /  1018.8 hPa WSW 2 mph /  3.2 km/h 2 mph /  3.2 km/h 61 % 0 in /  0.0 mm
22:31 48.4 °F /  9.1 °C 32 °F /  0.0 °C 30.2 in /  1020.9 hPa Calm     53 % 0 in /  0.0 mm
22:36 48.2 °F /  9.0 °C 31.8 °F /  -0.1 °C 30.2 in /  1020.9 hPa SW 2.6 mph /  4.2 km/h 2.6 mph /  4.2 km/h 53 % 0 in /  0.0 mm
22:40 42.4 °F /  5.8 °C 29.5 °F /  -1.4 °C 30.1 in /  1018.8 hPa Calm   2 mph /  3.2 km/h 60 % 0 in /  0.0 mm
22:41 48.2 °F /  9.0 °C 31.5 °F /  -0.3 °C 30.2 in /  1020.9 hPa WSW 1.4 mph /  2.3 km/h 1.6 mph /  2.6 km/h 52 % 0 in /  0.0 mm
22:46 48 °F /  8.9 °C 31.6 °F /  -0.2 °C 30.2 in /  1020.9 hPa Calm     53 % 0 in /  0.0 mm
22:51 47.8 °F /  8.8 °C 31.5 °F /  -0.3 °C 30.1 in /  1019.9 hPa Calm     53 % 0 in /  0.0 mm
22:56 48 °F /  8.9 °C 31.6 °F /  -0.2 °C 30.1 in /  1019.9 hPa NNW 1.4 mph /  2.3 km/h   53 % 0 in /  0.0 mm
23:00 42.4 °F /  5.8 °C 29.8 °F /  -1.2 °C 30.1 in /  1018.8 hPa Calm   1 mph /  1.6 km/h 61 % 0 in /  0.0 mm
23:01 47.8 °F /  8.8 °C 31.5 °F /  -0.3 °C 30.1 in /  1019.9 hPa Calm     53 % 0 in /  0.0 mm
23:06 47.5 °F /  8.6 °C 31.3 °F /  -0.4 °C 30.1 in /  1019.9 hPa Calm     53 % 0 in /  0.0 mm
23:11 47.1 °F /  8.4 °C 30.9 °F /  -0.6 °C 30.1 in /  1019.9 hPa Calm     53 % 0 in /  0.0 mm
23:20 42.1 °F /  5.6 °C 30 °F /  -1.1 °C 30.1 in /  1018.8 hPa North 2 mph /  3.2 km/h 2 mph /  3.2 km/h 62 % 0 in /  0.0 mm
23:21 46.8 °F /  8.2 °C 30.9 °F /  -0.6 °C 30.1 in /  1019.9 hPa Calm     54 % 0 in /  0.0 mm
23:26 46.8 °F /  8.2 °C 30.9 °F /  -0.6 °C 30.1 in /  1019.9 hPa North 2 mph /  3.2 km/h 2 mph /  3.2 km/h 54 % 0 in /  0.0 mm
23:30 41.9 °F /  5.5 °C 29.8 °F /  -1.2 °C 30.1 in /  1018.8 hPa Calm   2 mph /  3.2 km/h 62 % 0 in /  0.0 mm
23:31 46.8 °F /  8.2 °C 30.9 °F /  -0.6 °C 30.1 in /  1019.9 hPa NNE 1.4 mph /  2.3 km/h   54 % 0 in /  0.0 mm
23:40 41.4 °F /  5.2 °C 29.3 °F /  -1.5 °C 30.1 in /  1018.8 hPa Calm     62 % 0 in /  0.0 mm
23:41 46.9 °F /  8.3 °C 31.1 °F /  -0.5 °C 30.1 in /  1019.9 hPa Calm     54 % 0 in /  0.0 mm
23:46 46.9 °F /  8.3 °C 31.6 °F /  -0.2 °C 30.1 in /  1019.9 hPa Calm     55 % 0 in /  0.0 mm
Meteo Sesrovires
Elogis d' Weather Underground - 3.25 mb

Guio original per  Jim McMurry - jmcmurry@mwt.net Adaptat per a la plantilla per  Wim van der Kuil - Leuven-Template.eu

Trobareu la nostra informacio del temps tambe a:

Weather Underground

AWEKAS